sensor_id;sensor_type;location;lat;lon;timestamp;P1;durP1;ratioP1;P2;durP2;ratioP2
61590;SDS011;57639;52.410;-1.966;2022-10-31T00:01:30;7.57;;;2.28;;
61590;SDS011;57639;52.410;-1.966;2022-10-31T00:04:39;5.25;;;2.22;;
61590;SDS011;57639;52.410;-1.966;2022-10-31T00:07:51;5.63;;;2.20;;
61590;SDS011;57639;52.410;-1.966;2022-10-31T00:11:01;4.40;;;1.90;;
61590;SDS011;57639;52.410;-1.966;2022-10-31T00:14:11;7.20;;;2.05;;
61590;SDS011;57639;52.410;-1.966;2022-10-31T00:17:21;5.00;;;2.00;;
61590;SDS011;57639;52.410;-1.966;2022-10-31T00:20:30;5.80;;;2.10;;
61590;SDS011;57639;52.410;-1.966;2022-10-31T00:23:38;6.45;;;1.95;;
61590;SDS011;57639;52.410;-1.966;2022-10-31T00:26:46;4.25;;;2.10;;
61590;SDS011;57639;52.410;-1.966;2022-10-31T00:29:53;5.38;;;1.80;;
61590;SDS011;57639;52.410;-1.966;2022-10-31T00:33:05;5.28;;;1.92;;
61590;SDS011;57639;52.410;-1.966;2022-10-31T00:36:13;6.78;;;2.03;;
61590;SDS011;57639;52.410;-1.966;2022-10-31T00:39:22;9.35;;;2.15;;
61590;SDS011;57639;52.410;-1.966;2022-10-31T00:42:29;5.40;;;1.90;;
61590;SDS011;57639;52.410;-1.966;2022-10-31T00:45:37;7.03;;;2.03;;
61590;SDS011;57639;52.410;-1.966;2022-10-31T00:48:50;6.32;;;2.20;;
61590;SDS011;57639;52.410;-1.966;2022-10-31T00:51:57;5.60;;;1.85;;
61590;SDS011;57639;52.410;-1.966;2022-10-31T00:55:05;3.97;;;1.75;;
61590;SDS011;57639;52.410;-1.966;2022-10-31T00:58:13;6.32;;;1.73;;
61590;SDS011;57639;52.410;-1.966;2022-10-31T01:01:22;5.25;;;1.77;;
61590;SDS011;57639;52.410;-1.966;2022-10-31T01:04:38;5.95;;;2.20;;
61590;SDS011;57639;52.410;-1.966;2022-10-31T01:07:46;5.38;;;1.70;;
61590;SDS011;57639;52.410;-1.966;2022-10-31T01:10:59;5.38;;;1.58;;
61590;SDS011;57639;52.410;-1.966;2022-10-31T01:14:14;6.97;;;1.90;;
61590;SDS011;57639;52.410;-1.966;2022-10-31T01:17:24;4.72;;;1.50;;
61590;SDS011;57639;52.410;-1.966;2022-10-31T01:20:36;6.78;;;2.08;;
61590;SDS011;57639;52.410;-1.966;2022-10-31T01:23:45;6.20;;;1.88;;
61590;SDS011;57639;52.410;-1.966;2022-10-31T01:26:53;4.90;;;1.60;;
61590;SDS011;57639;52.410;-1.966;2022-10-31T01:30:00;5.43;;;1.88;;
61590;SDS011;57639;52.410;-1.966;2022-10-31T01:33:07;5.95;;;2.00;;
61590;SDS011;57639;52.410;-1.966;2022-10-31T01:36:18;5.15;;;1.60;;
61590;SDS011;57639;52.410;-1.966;2022-10-31T01:39:28;6.90;;;2.03;;
61590;SDS011;57639;52.410;-1.966;2022-10-31T01:42:35;4.72;;;1.65;;
61590;SDS011;57639;52.410;-1.966;2022-10-31T01:45:43;8.25;;;1.92;;
61590;SDS011;57639;52.410;-1.966;2022-10-31T01:48:57;4.15;;;1.55;;
61590;SDS011;57639;52.410;-1.966;2022-10-31T01:52:10;7.63;;;1.88;;
61590;SDS011;57639;52.410;-1.966;2022-10-31T01:55:22;4.40;;;1.60;;
61590;SDS011;57639;52.410;-1.966;2022-10-31T01:58:33;6.80;;;1.88;;
61590;SDS011;57639;52.410;-1.966;2022-10-31T02:01:41;5.00;;;1.60;;
61590;SDS011;57639;52.410;-1.966;2022-10-31T02:04:49;4.47;;;1.70;;
61590;SDS011;57639;52.410;-1.966;2022-10-31T02:08:01;5.03;;;1.50;;
61590;SDS011;57639;52.410;-1.966;2022-10-31T02:11:12;6.35;;;1.65;;
61590;SDS011;57639;52.410;-1.966;2022-10-31T02:14:22;9.57;;;1.92;;
61590;SDS011;57639;52.410;-1.966;2022-10-31T02:17:32;5.43;;;1.65;;
61590;SDS011;57639;52.410;-1.966;2022-10-31T02:20:42;6.72;;;1.80;;
61590;SDS011;57639;52.410;-1.966;2022-10-31T02:27:48;4.95;;;1.52;;
61590;SDS011;57639;52.410;-1.966;2022-10-31T02:31:30;5.63;;;1.52;;
61590;SDS011;57639;52.410;-1.966;2022-10-31T02:34:44;5.35;;;1.38;;
61590;SDS011;57639;52.410;-1.966;2022-10-31T02:38:01;4.50;;;1.35;;
61590;SDS011;57639;52.410;-1.966;2022-10-31T02:41:15;4.55;;;1.50;;
61590;SDS011;57639;52.410;-1.966;2022-10-31T02:44:42;5.50;;;1.60;;
61590;SDS011;57639;52.410;-1.966;2022-10-31T02:48:01;5.43;;;1.48;;
61590;SDS011;57639;52.410;-1.966;2022-10-31T02:51:17;6.18;;;1.70;;
61590;SDS011;57639;52.410;-1.966;2022-10-31T02:54:28;5.18;;;1.75;;
61590;SDS011;57639;52.410;-1.966;2022-10-31T02:57:41;3.85;;;1.25;;
61590;SDS011;57639;52.410;-1.966;2022-10-31T03:00:53;6.22;;;1.88;;
61590;SDS011;57639;52.410;-1.966;2022-10-31T03:04:25;5.80;;;1.50;;
61590;SDS011;57639;52.410;-1.966;2022-10-31T03:07:42;3.92;;;1.35;;
61590;SDS011;57639;52.410;-1.966;2022-10-31T03:11:00;6.87;;;1.77;;
61590;SDS011;57639;52.410;-1.966;2022-10-31T03:14:10;6.22;;;1.70;;
61590;SDS011;57639;52.410;-1.966;2022-10-31T03:17:24;5.03;;;1.42;;
61590;SDS011;57639;52.410;-1.966;2022-10-31T03:20:43;5.00;;;1.60;;
61590;SDS011;57639;52.410;-1.966;2022-10-31T03:23:54;5.75;;;1.70;;
61590;SDS011;57639;52.410;-1.966;2022-10-31T03:27:05;3.72;;;1.38;;
61590;SDS011;57639;52.410;-1.966;2022-10-31T03:30:15;5.43;;;1.50;;
61590;SDS011;57639;52.410;-1.966;2022-10-31T03:33:26;5.60;;;1.42;;
61590;SDS011;57639;52.410;-1.966;2022-10-31T03:36:40;3.33;;;1.10;;
61590;SDS011;57639;52.410;-1.966;2022-10-31T03:39:50;3.45;;;1.20;;
61590;SDS011;57639;52.410;-1.966;2022-10-31T03:42:59;3.83;;;1.27;;
61590;SDS011;57639;52.410;-1.966;2022-10-31T03:46:11;4.47;;;1.23;;
61590;SDS011;57639;52.410;-1.966;2022-10-31T03:49:19;4.38;;;1.45;;
61590;SDS011;57639;52.410;-1.966;2022-10-31T03:52:31;4.22;;;1.30;;
61590;SDS011;57639;52.410;-1.966;2022-10-31T03:55:45;3.38;;;1.20;;
61590;SDS011;57639;52.410;-1.966;2022-10-31T03:58:58;5.82;;;1.50;;
61590;SDS011;57639;52.410;-1.966;2022-10-31T04:02:13;3.22;;;1.23;;
61590;SDS011;57639;52.410;-1.966;2022-10-31T04:05:24;5.30;;;1.55;;
61590;SDS011;57639;52.410;-1.966;2022-10-31T04:08:36;3.92;;;1.27;;
61590;SDS011;57639;52.410;-1.966;2022-10-31T04:11:48;5.47;;;1.50;;
61590;SDS011;57639;52.410;-1.966;2022-10-31T04:14:59;4.07;;;1.40;;
61590;SDS011;57639;52.410;-1.966;2022-10-31T04:21:16;3.80;;;1.33;;
61590;SDS011;57639;52.410;-1.966;2022-10-31T04:24:27;4.63;;;1.38;;
61590;SDS011;57639;52.410;-1.966;2022-10-31T04:27:34;5.30;;;1.42;;
61590;SDS011;57639;52.410;-1.966;2022-10-31T04:30:42;3.72;;;1.27;;
61590;SDS011;57639;52.410;-1.966;2022-10-31T04:33:50;2.95;;;1.08;;
61590;SDS011;57639;52.410;-1.966;2022-10-31T04:36:57;5.30;;;1.55;;
61590;SDS011;57639;52.410;-1.966;2022-10-31T04:40:09;4.60;;;1.40;;
61590;SDS011;57639;52.410;-1.966;2022-10-31T04:43:17;3.60;;;1.33;;
61590;SDS011;57639;52.410;-1.966;2022-10-31T04:46:25;3.67;;;1.23;;
61590;SDS011;57639;52.410;-1.966;2022-10-31T04:49:32;5.10;;;1.42;;
61590;SDS011;57639;52.410;-1.966;2022-10-31T04:52:40;5.63;;;1.67;;
61590;SDS011;57639;52.410;-1.966;2022-10-31T04:55:51;4.63;;;1.20;;
61590;SDS011;57639;52.410;-1.966;2022-10-31T04:58:59;4.47;;;1.20;;
61590;SDS011;57639;52.410;-1.966;2022-10-31T05:02:06;4.50;;;1.10;;
61590;SDS011;57639;52.410;-1.966;2022-10-31T05:05:14;5.53;;;1.42;;
61590;SDS011;57639;52.410;-1.966;2022-10-31T05:08:23;5.43;;;1.25;;
61590;SDS011;57639;52.410;-1.966;2022-10-31T05:11:33;3.30;;;1.02;;
61590;SDS011;57639;52.410;-1.966;2022-10-31T05:14:41;5.05;;;1.35;;
61590;SDS011;57639;52.410;-1.966;2022-10-31T05:17:51;3.80;;;1.20;;
61590;SDS011;57639;52.410;-1.966;2022-10-31T05:21:00;5.07;;;0.98;;
61590;SDS011;57639;52.410;-1.966;2022-10-31T05:24:07;4.57;;;1.10;;
61590;SDS011;57639;52.410;-1.966;2022-10-31T05:27:18;4.15;;;1.20;;
61590;SDS011;57639;52.410;-1.966;2022-10-31T05:30:26;3.80;;;0.90;;
61590;SDS011;57639;52.410;-1.966;2022-10-31T05:33:35;4.63;;;0.97;;
61590;SDS011;57639;52.410;-1.966;2022-10-31T05:36:42;3.95;;;1.23;;
61590;SDS011;57639;52.410;-1.966;2022-10-31T05:39:50;2.70;;;0.98;;
61590;SDS011;57639;52.410;-1.966;2022-10-31T05:43:00;3.60;;;0.90;;
61590;SDS011;57639;52.410;-1.966;2022-10-31T05:46:08;3.85;;;0.98;;
61590;SDS011;57639;52.410;-1.966;2022-10-31T05:49:15;3.50;;;1.02;;
61590;SDS011;57639;52.410;-1.966;2022-10-31T05:52:24;3.38;;;0.90;;
61590;SDS011;57639;52.410;-1.966;2022-10-31T05:55:31;3.38;;;1.00;;
61590;SDS011;57639;52.410;-1.966;2022-10-31T05:58:42;4.28;;;0.90;;
61590;SDS011;57639;52.410;-1.966;2022-10-31T06:01:49;4.25;;;1.15;;
61590;SDS011;57639;52.410;-1.966;2022-10-31T06:04:57;3.67;;;1.02;;
61590;SDS011;57639;52.410;-1.966;2022-10-31T06:08:05;3.20;;;0.90;;
61590;SDS011;57639;52.410;-1.966;2022-10-31T06:11:12;4.55;;;1.10;;
61590;SDS011;57639;52.410;-1.966;2022-10-31T06:14:23;5.63;;;1.00;;
61590;SDS011;57639;52.410;-1.966;2022-10-31T06:17:30;2.65;;;0.80;;
61590;SDS011;57639;52.410;-1.966;2022-10-31T06:20:38;4.05;;;1.02;;
61590;SDS011;57639;52.410;-1.966;2022-10-31T06:23:46;3.70;;;1.05;;
61590;SDS011;57639;52.410;-1.966;2022-10-31T06:26:53;3.35;;;0.98;;
61590;SDS011;57639;52.410;-1.966;2022-10-31T06:30:04;3.63;;;0.90;;
61590;SDS011;57639;52.410;-1.966;2022-10-31T06:33:12;3.88;;;1.10;;
61590;SDS011;57639;52.410;-1.966;2022-10-31T06:36:20;3.95;;;1.05;;
61590;SDS011;57639;52.410;-1.966;2022-10-31T06:39:27;5.57;;;1.08;;
61590;SDS011;57639;52.410;-1.966;2022-10-31T06:42:35;3.17;;;0.90;;
61590;SDS011;57639;52.410;-1.966;2022-10-31T06:45:45;4.65;;;0.98;;
61590;SDS011;57639;52.410;-1.966;2022-10-31T06:48:52;3.08;;;0.85;;
61590;SDS011;57639;52.410;-1.966;2022-10-31T06:52:00;2.47;;;0.73;;
61590;SDS011;57639;52.410;-1.966;2022-10-31T06:55:08;3.45;;;0.90;;
61590;SDS011;57639;52.410;-1.966;2022-10-31T06:58:15;3.17;;;0.80;;
61590;SDS011;57639;52.410;-1.966;2022-10-31T07:01:26;4.85;;;1.15;;
61590;SDS011;57639;52.410;-1.966;2022-10-31T07:04:33;4.90;;;1.30;;
61590;SDS011;57639;52.410;-1.966;2022-10-31T07:07:41;2.88;;;0.88;;
61590;SDS011;57639;52.410;-1.966;2022-10-31T07:10:50;3.13;;;1.08;;
61590;SDS011;57639;52.410;-1.966;2022-10-31T07:13:59;4.22;;;1.40;;
61590;SDS011;57639;52.410;-1.966;2022-10-31T07:17:09;3.80;;;1.10;;
61590;SDS011;57639;52.410;-1.966;2022-10-31T07:20:17;3.08;;;1.00;;
61590;SDS011;57639;52.410;-1.966;2022-10-31T07:23:24;2.67;;;1.05;;
61590;SDS011;57639;52.410;-1.966;2022-10-31T07:26:32;3.05;;;0.80;;
61590;SDS011;57639;52.410;-1.966;2022-10-31T07:29:39;4.32;;;1.30;;
61590;SDS011;57639;52.410;-1.966;2022-10-31T07:32:50;3.85;;;0.88;;
61590;SDS011;57639;52.410;-1.966;2022-10-31T07:35:57;3.72;;;0.90;;
61590;SDS011;57639;52.410;-1.966;2022-10-31T07:39:06;3.45;;;0.90;;
61590;SDS011;57639;52.410;-1.966;2022-10-31T07:42:14;5.10;;;1.27;;
61590;SDS011;57639;52.410;-1.966;2022-10-31T07:45:21;4.78;;;1.08;;
61590;SDS011;57639;52.410;-1.966;2022-10-31T07:48:32;2.75;;;1.00;;
61590;SDS011;57639;52.410;-1.966;2022-10-31T07:51:39;3.00;;;1.00;;
61590;SDS011;57639;52.410;-1.966;2022-10-31T07:54:49;5.85;;;1.15;;
61590;SDS011;57639;52.410;-1.966;2022-10-31T07:57:57;5.93;;;1.02;;
61590;SDS011;57639;52.410;-1.966;2022-10-31T08:01:06;3.88;;;1.05;;
61590;SDS011;57639;52.410;-1.966;2022-10-31T08:04:21;3.28;;;0.90;;
61590;SDS011;57639;52.410;-1.966;2022-10-31T08:07:28;2.92;;;1.10;;
61590;SDS011;57639;52.410;-1.966;2022-10-31T08:10:36;4.75;;;1.00;;
61590;SDS011;57639;52.410;-1.966;2022-10-31T08:13:44;3.47;;;1.05;;
61590;SDS011;57639;52.410;-1.966;2022-10-31T08:16:53;2.83;;;1.00;;
61590;SDS011;57639;52.410;-1.966;2022-10-31T08:20:03;3.38;;;0.93;;
61590;SDS011;57639;52.410;-1.966;2022-10-31T08:23:12;5.15;;;1.02;;
61590;SDS011;57639;52.410;-1.966;2022-10-31T08:26:20;4.13;;;1.30;;
61590;SDS011;57639;52.410;-1.966;2022-10-31T08:29:27;4.93;;;1.27;;
61590;SDS011;57639;52.410;-1.966;2022-10-31T08:32:35;4.45;;;1.45;;
61590;SDS011;57639;52.410;-1.966;2022-10-31T08:35:45;3.53;;;1.02;;
61590;SDS011;57639;52.410;-1.966;2022-10-31T08:38:53;5.13;;;1.00;;
61590;SDS011;57639;52.410;-1.966;2022-10-31T08:42:02;2.30;;;0.73;;
61590;SDS011;57639;52.410;-1.966;2022-10-31T08:45:10;3.30;;;0.80;;
61590;SDS011;57639;52.410;-1.966;2022-10-31T08:48:17;3.38;;;0.90;;
61590;SDS011;57639;52.410;-1.966;2022-10-31T08:51:27;2.95;;;0.90;;
61590;SDS011;57639;52.410;-1.966;2022-10-31T08:54:35;3.92;;;1.20;;
61590;SDS011;57639;52.410;-1.966;2022-10-31T08:57:42;5.10;;;1.38;;
61590;SDS011;57639;52.410;-1.966;2022-10-31T09:00:51;2.67;;;0.90;;
61590;SDS011;57639;52.410;-1.966;2022-10-31T09:04:00;3.45;;;1.00;;
61590;SDS011;57639;52.410;-1.966;2022-10-31T09:07:10;3.50;;;1.00;;
61590;SDS011;57639;52.410;-1.966;2022-10-31T09:10:23;3.53;;;0.90;;
61590;SDS011;57639;52.410;-1.966;2022-10-31T09:13:31;4.05;;;1.20;;
61590;SDS011;57639;52.410;-1.966;2022-10-31T09:16:44;4.88;;;1.33;;
61590;SDS011;57639;52.410;-1.966;2022-10-31T09:19:51;4.28;;;1.05;;
61590;SDS011;57639;52.410;-1.966;2022-10-31T09:23:03;3.67;;;1.02;;
61590;SDS011;57639;52.410;-1.966;2022-10-31T09:26:12;3.95;;;1.00;;
61590;SDS011;57639;52.410;-1.966;2022-10-31T09:29:20;3.50;;;1.23;;
61590;SDS011;57639;52.410;-1.966;2022-10-31T09:32:28;5.53;;;0.98;;
61590;SDS011;57639;52.410;-1.966;2022-10-31T09:35:35;4.88;;;1.20;;
61590;SDS011;57639;52.410;-1.966;2022-10-31T09:38:46;6.60;;;1.30;;
61590;SDS011;57639;52.410;-1.966;2022-10-31T09:42:03;3.50;;;0.90;;
61590;SDS011;57639;52.410;-1.966;2022-10-31T09:45:26;3.42;;;0.90;;
61590;SDS011;57639;52.410;-1.966;2022-10-31T09:48:42;3.55;;;1.20;;
61590;SDS011;57639;52.410;-1.966;2022-10-31T09:52:00;3.97;;;0.95;;
61590;SDS011;57639;52.410;-1.966;2022-10-31T09:55:13;2.88;;;0.90;;
61590;SDS011;57639;52.410;-1.966;2022-10-31T09:58:24;4.38;;;0.88;;
61590;SDS011;57639;52.410;-1.966;2022-10-31T10:01:41;3.88;;;1.10;;
61590;SDS011;57639;52.410;-1.966;2022-10-31T10:04:54;3.22;;;1.08;;
61590;SDS011;57639;52.410;-1.966;2022-10-31T10:08:07;3.47;;;0.88;;
61590;SDS011;57639;52.410;-1.966;2022-10-31T10:11:41;3.78;;;1.10;;
61590;SDS011;57639;52.410;-1.966;2022-10-31T10:15:08;3.15;;;1.00;;
61590;SDS011;57639;52.410;-1.966;2022-10-31T10:18:39;2.63;;;0.80;;
61590;SDS011;57639;52.410;-1.966;2022-10-31T10:21:57;3.72;;;1.05;;
61590;SDS011;57639;52.410;-1.966;2022-10-31T10:25:19;2.67;;;0.85;;
61590;SDS011;57639;52.410;-1.966;2022-10-31T10:28:32;3.20;;;1.00;;
61590;SDS011;57639;52.410;-1.966;2022-10-31T10:31:45;4.05;;;0.90;;
61590;SDS011;57639;52.410;-1.966;2022-10-31T10:34:57;4.00;;;0.85;;
61590;SDS011;57639;52.410;-1.966;2022-10-31T10:38:11;2.95;;;1.02;;
61590;SDS011;57639;52.410;-1.966;2022-10-31T10:41:33;4.97;;;1.20;;
61590;SDS011;57639;52.410;-1.966;2022-10-31T10:44:45;4.88;;;0.90;;
61590;SDS011;57639;52.410;-1.966;2022-10-31T10:48:12;3.58;;;0.88;;
61590;SDS011;57639;52.410;-1.966;2022-10-31T10:51:23;3.35;;;1.02;;
61590;SDS011;57639;52.410;-1.966;2022-10-31T10:54:58;3.55;;;1.10;;
61590;SDS011;57639;52.410;-1.966;2022-10-31T10:58:13;2.67;;;0.93;;
61590;SDS011;57639;52.410;-1.966;2022-10-31T11:01:23;4.13;;;1.02;;
61590;SDS011;57639;52.410;-1.966;2022-10-31T11:04:32;4.47;;;1.00;;
61590;SDS011;57639;52.410;-1.966;2022-10-31T11:07:41;2.20;;;0.90;;
61590;SDS011;57639;52.410;-1.966;2022-10-31T11:10:55;4.22;;;1.30;;
61590;SDS011;57639;52.410;-1.966;2022-10-31T11:14:05;4.05;;;1.02;;
61590;SDS011;57639;52.410;-1.966;2022-10-31T11:17:31;2.80;;;1.00;;
61590;SDS011;57639;52.410;-1.966;2022-10-31T11:20:40;3.97;;;1.17;;
61590;SDS011;57639;52.410;-1.966;2022-10-31T11:24:01;3.92;;;0.85;;
61590;SDS011;57639;52.410;-1.966;2022-10-31T11:27:13;3.22;;;0.85;;
61590;SDS011;57639;52.410;-1.966;2022-10-31T11:30:25;4.70;;;1.00;;
61590;SDS011;57639;52.410;-1.966;2022-10-31T11:33:36;3.92;;;1.15;;
61590;SDS011;57639;52.410;-1.966;2022-10-31T11:36:48;2.67;;;0.80;;
61590;SDS011;57639;52.410;-1.966;2022-10-31T11:39:58;4.32;;;1.00;;
61590;SDS011;57639;52.410;-1.966;2022-10-31T11:43:12;3.58;;;0.90;;
61590;SDS011;57639;52.410;-1.966;2022-10-31T11:46:28;1.95;;;0.80;;
61590;SDS011;57639;52.410;-1.966;2022-10-31T11:49:44;3.70;;;0.95;;
61590;SDS011;57639;52.410;-1.966;2022-10-31T11:52:54;2.60;;;0.73;;
61590;SDS011;57639;52.410;-1.966;2022-10-31T11:56:04;3.28;;;1.25;;
61590;SDS011;57639;52.410;-1.966;2022-10-31T11:59:16;2.65;;;1.00;;
61590;SDS011;57639;52.410;-1.966;2022-10-31T12:02:27;4.72;;;0.90;;
61590;SDS011;57639;52.410;-1.966;2022-10-31T12:05:38;3.65;;;1.02;;
61590;SDS011;57639;52.410;-1.966;2022-10-31T12:08:48;3.67;;;1.00;;
61590;SDS011;57639;52.410;-1.966;2022-10-31T12:15:29;2.53;;;1.00;;
61590;SDS011;57639;52.410;-1.966;2022-10-31T12:18:43;5.15;;;1.15;;
61590;SDS011;57639;52.410;-1.966;2022-10-31T12:22:05;4.53;;;1.10;;
61590;SDS011;57639;52.410;-1.966;2022-10-31T12:25:24;3.72;;;1.10;;
61590;SDS011;57639;52.410;-1.966;2022-10-31T12:28:45;6.30;;;1.20;;
61590;SDS011;57639;52.410;-1.966;2022-10-31T12:32:22;5.32;;;1.10;;
61590;SDS011;57639;52.410;-1.966;2022-10-31T12:35:36;3.97;;;1.20;;
61590;SDS011;57639;52.410;-1.966;2022-10-31T12:38:57;4.65;;;1.15;;
61590;SDS011;57639;52.410;-1.966;2022-10-31T12:42:17;3.97;;;1.23;;
61590;SDS011;57639;52.410;-1.966;2022-10-31T12:45:35;3.47;;;1.20;;
61590;SDS011;57639;52.410;-1.966;2022-10-31T12:49:00;4.00;;;1.40;;
61590;SDS011;57639;52.410;-1.966;2022-10-31T12:52:31;5.00;;;1.45;;
61590;SDS011;57639;52.410;-1.966;2022-10-31T12:55:58;3.53;;;1.08;;
61590;SDS011;57639;52.410;-1.966;2022-10-31T12:59:15;3.75;;;0.98;;
61590;SDS011;57639;52.410;-1.966;2022-10-31T13:02:29;3.58;;;1.30;;
61590;SDS011;57639;52.410;-1.966;2022-10-31T13:05:40;3.70;;;1.13;;
61590;SDS011;57639;52.410;-1.966;2022-10-31T13:08:52;3.20;;;1.02;;
61590;SDS011;57639;52.410;-1.966;2022-10-31T13:12:07;5.70;;;1.25;;
61590;SDS011;57639;52.410;-1.966;2022-10-31T13:15:18;2.17;;;1.10;;
61590;SDS011;57639;52.410;-1.966;2022-10-31T13:18:30;5.38;;;1.13;;
61590;SDS011;57639;52.410;-1.966;2022-10-31T13:21:41;4.22;;;1.27;;
61590;SDS011;57639;52.410;-1.966;2022-10-31T13:24:58;2.80;;;1.10;;
61590;SDS011;57639;52.410;-1.966;2022-10-31T13:28:12;3.45;;;1.20;;
61590;SDS011;57639;52.410;-1.966;2022-10-31T13:31:32;2.63;;;1.20;;
61590;SDS011;57639;52.410;-1.966;2022-10-31T13:34:40;4.88;;;1.27;;
61590;SDS011;57639;52.410;-1.966;2022-10-31T13:37:53;4.85;;;1.27;;
61590;SDS011;57639;52.410;-1.966;2022-10-31T13:41:11;4.00;;;1.25;;
61590;SDS011;57639;52.410;-1.966;2022-10-31T13:47:42;3.65;;;1.10;;
61590;SDS011;57639;52.410;-1.966;2022-10-31T13:50:55;3.28;;;1.10;;
61590;SDS011;57639;52.410;-1.966;2022-10-31T13:54:06;4.60;;;1.55;;
61590;SDS011;57639;52.410;-1.966;2022-10-31T13:57:29;4.68;;;1.55;;
61590;SDS011;57639;52.410;-1.966;2022-10-31T14:00:41;5.18;;;1.58;;
61590;SDS011;57639;52.410;-1.966;2022-10-31T14:03:55;4.95;;;1.25;;
61590;SDS011;57639;52.410;-1.966;2022-10-31T14:07:16;2.13;;;1.00;;
61590;SDS011;57639;52.410;-1.966;2022-10-31T14:10:26;4.32;;;1.38;;
61590;SDS011;57639;52.410;-1.966;2022-10-31T14:13:36;4.68;;;1.20;;
61590;SDS011;57639;52.410;-1.966;2022-10-31T14:16:55;3.97;;;1.02;;
61590;SDS011;57639;52.410;-1.966;2022-10-31T14:23:48;2.60;;;1.20;;
61590;SDS011;57639;52.410;-1.966;2022-10-31T14:30:17;3.60;;;1.17;;
61590;SDS011;57639;52.410;-1.966;2022-10-31T14:33:29;3.47;;;0.98;;
61590;SDS011;57639;52.410;-1.966;2022-10-31T14:36:40;3.20;;;1.13;;
61590;SDS011;57639;52.410;-1.966;2022-10-31T14:39:56;3.65;;;1.30;;
61590;SDS011;57639;52.410;-1.966;2022-10-31T14:43:14;4.93;;;1.10;;
61590;SDS011;57639;52.410;-1.966;2022-10-31T14:46:50;4.90;;;1.20;;
61590;SDS011;57639;52.410;-1.966;2022-10-31T14:50:17;3.20;;;0.90;;
61590;SDS011;57639;52.410;-1.966;2022-10-31T14:53:30;4.80;;;0.98;;
61590;SDS011;57639;52.410;-1.966;2022-10-31T14:56:45;4.43;;;1.02;;
61590;SDS011;57639;52.410;-1.966;2022-10-31T14:59:57;4.18;;;1.00;;
61590;SDS011;57639;52.410;-1.966;2022-10-31T15:03:10;2.85;;;0.98;;
61590;SDS011;57639;52.410;-1.966;2022-10-31T15:06:24;4.05;;;1.20;;
61590;SDS011;57639;52.410;-1.966;2022-10-31T15:09:33;4.05;;;1.02;;
61590;SDS011;57639;52.410;-1.966;2022-10-31T15:12:44;4.10;;;1.00;;
61590;SDS011;57639;52.410;-1.966;2022-10-31T15:15:52;2.50;;;0.90;;
61590;SDS011;57639;52.410;-1.966;2022-10-31T15:19:02;2.45;;;1.05;;
61590;SDS011;57639;52.410;-1.966;2022-10-31T15:22:14;5.53;;;1.20;;
61590;SDS011;57639;52.410;-1.966;2022-10-31T15:25:24;2.95;;;1.00;;
61590;SDS011;57639;52.410;-1.966;2022-10-31T15:28:34;1.73;;;0.85;;
61590;SDS011;57639;52.410;-1.966;2022-10-31T15:31:49;2.00;;;1.00;;
61590;SDS011;57639;52.410;-1.966;2022-10-31T15:34:57;3.83;;;1.10;;
61590;SDS011;57639;52.410;-1.966;2022-10-31T15:38:09;3.30;;;1.10;;
61590;SDS011;57639;52.410;-1.966;2022-10-31T15:41:23;2.45;;;1.02;;
61590;SDS011;57639;52.410;-1.966;2022-10-31T15:44:37;3.75;;;1.10;;
61590;SDS011;57639;52.410;-1.966;2022-10-31T15:47:49;2.38;;;1.00;;
61590;SDS011;57639;52.410;-1.966;2022-10-31T15:51:02;4.28;;;0.95;;
61590;SDS011;57639;52.410;-1.966;2022-10-31T15:57:22;3.90;;;1.00;;
61590;SDS011;57639;52.410;-1.966;2022-10-31T16:00:32;3.35;;;1.10;;
61590;SDS011;57639;52.410;-1.966;2022-10-31T16:03:42;1.85;;;0.98;;
61590;SDS011;57639;52.410;-1.966;2022-10-31T16:06:58;1.77;;;0.98;;
61590;SDS011;57639;52.410;-1.966;2022-10-31T16:10:31;3.00;;;1.15;;
61590;SDS011;57639;52.410;-1.966;2022-10-31T16:13:42;3.75;;;1.00;;
61590;SDS011;57639;52.410;-1.966;2022-10-31T16:17:01;3.78;;;1.00;;
61590;SDS011;57639;52.410;-1.966;2022-10-31T16:20:16;3.08;;;0.82;;
61590;SDS011;57639;52.410;-1.966;2022-10-31T16:23:29;3.05;;;1.08;;
61590;SDS011;57639;52.410;-1.966;2022-10-31T16:26:37;5.65;;;1.02;;
61590;SDS011;57639;52.410;-1.966;2022-10-31T16:29:46;2.40;;;0.75;;
61590;SDS011;57639;52.410;-1.966;2022-10-31T16:32:54;3.38;;;1.10;;
61590;SDS011;57639;52.410;-1.966;2022-10-31T16:39:46;1.65;;;0.80;;
61590;SDS011;57639;52.410;-1.966;2022-10-31T16:42:57;3.05;;;1.10;;
61590;SDS011;57639;52.410;-1.966;2022-10-31T16:46:08;2.65;;;0.98;;
61590;SDS011;57639;52.410;-1.966;2022-10-31T16:49:21;2.83;;;1.00;;
61590;SDS011;57639;52.410;-1.966;2022-10-31T16:52:29;3.40;;;1.20;;
61590;SDS011;57639;52.410;-1.966;2022-10-31T16:55:50;3.55;;;1.20;;
61590;SDS011;57639;52.410;-1.966;2022-10-31T16:59:05;2.97;;;0.90;;
61590;SDS011;57639;52.410;-1.966;2022-10-31T17:02:19;2.95;;;1.10;;
61590;SDS011;57639;52.410;-1.966;2022-10-31T17:05:27;3.17;;;0.93;;
61590;SDS011;57639;52.410;-1.966;2022-10-31T17:08:46;2.65;;;1.00;;
61590;SDS011;57639;52.410;-1.966;2022-10-31T17:11:52;1.65;;;0.90;;
61590;SDS011;57639;52.410;-1.966;2022-10-31T17:14:58;2.35;;;0.98;;
61590;SDS011;57639;52.410;-1.966;2022-10-31T17:18:04;1.80;;;0.90;;
61590;SDS011;57639;52.410;-1.966;2022-10-31T17:21:14;2.45;;;1.08;;
61590;SDS011;57639;52.410;-1.966;2022-10-31T17:24:27;3.08;;;1.13;;
61590;SDS011;57639;52.410;-1.966;2022-10-31T17:27:33;1.73;;;0.95;;
61590;SDS011;57639;52.410;-1.966;2022-10-31T17:30:39;3.13;;;0.93;;
61590;SDS011;57639;52.410;-1.966;2022-10-31T17:33:45;2.92;;;0.98;;
61590;SDS011;57639;52.410;-1.966;2022-10-31T17:36:52;2.75;;;1.00;;
61590;SDS011;57639;52.410;-1.966;2022-10-31T17:40:01;3.05;;;1.00;;
61590;SDS011;57639;52.410;-1.966;2022-10-31T17:43:08;2.75;;;1.00;;
61590;SDS011;57639;52.410;-1.966;2022-10-31T17:46:15;2.78;;;1.05;;
61590;SDS011;57639;52.410;-1.966;2022-10-31T17:49:21;3.28;;;1.10;;
61590;SDS011;57639;52.410;-1.966;2022-10-31T17:52:27;3.63;;;0.98;;
61590;SDS011;57639;52.410;-1.966;2022-10-31T17:55:37;5.07;;;1.27;;
61590;SDS011;57639;52.410;-1.966;2022-10-31T17:58:43;5.05;;;1.48;;
61590;SDS011;57639;52.410;-1.966;2022-10-31T18:01:49;4.57;;;1.55;;
61590;SDS011;57639;52.410;-1.966;2022-10-31T18:04:58;5.07;;;1.60;;
61590;SDS011;57639;52.410;-1.966;2022-10-31T18:08:06;4.00;;;1.73;;
61590;SDS011;57639;52.410;-1.966;2022-10-31T18:11:16;3.78;;;1.40;;
61590;SDS011;57639;52.410;-1.966;2022-10-31T18:14:24;3.97;;;1.42;;
61590;SDS011;57639;52.410;-1.966;2022-10-31T18:17:30;4.32;;;1.63;;
61590;SDS011;57639;52.410;-1.966;2022-10-31T18:20:39;6.30;;;1.77;;
61590;SDS011;57639;52.410;-1.966;2022-10-31T18:23:54;4.55;;;1.58;;
61590;SDS011;57639;52.410;-1.966;2022-10-31T18:27:04;4.13;;;1.33;;
61590;SDS011;57639;52.410;-1.966;2022-10-31T18:30:10;3.60;;;1.27;;
61590;SDS011;57639;52.410;-1.966;2022-10-31T18:33:17;3.33;;;1.38;;
61590;SDS011;57639;52.410;-1.966;2022-10-31T18:36:23;4.28;;;1.50;;
61590;SDS011;57639;52.410;-1.966;2022-10-31T18:39:29;4.60;;;1.33;;
61590;SDS011;57639;52.410;-1.966;2022-10-31T18:42:38;4.07;;;1.50;;
61590;SDS011;57639;52.410;-1.966;2022-10-31T18:45:44;3.83;;;1.35;;
61590;SDS011;57639;52.410;-1.966;2022-10-31T18:48:50;5.75;;;1.73;;
61590;SDS011;57639;52.410;-1.966;2022-10-31T18:51:56;2.92;;;1.35;;
61590;SDS011;57639;52.410;-1.966;2022-10-31T18:55:03;2.92;;;1.40;;
61590;SDS011;57639;52.410;-1.966;2022-10-31T18:58:55;2.78;;;1.17;;
61590;SDS011;57639;52.410;-1.966;2022-10-31T19:02:03;3.47;;;1.27;;
61590;SDS011;57639;52.410;-1.966;2022-10-31T19:05:09;3.45;;;1.33;;
61590;SDS011;57639;52.410;-1.966;2022-10-31T19:08:15;5.25;;;1.50;;
61590;SDS011;57639;52.410;-1.966;2022-10-31T19:11:21;5.57;;;1.40;;
61590;SDS011;57639;52.410;-1.966;2022-10-31T19:14:30;2.90;;;1.35;;
61590;SDS011;57639;52.410;-1.966;2022-10-31T19:17:34;4.55;;;1.60;;
61590;SDS011;57639;52.410;-1.966;2022-10-31T19:20:40;3.45;;;1.40;;
61590;SDS011;57639;52.410;-1.966;2022-10-31T19:23:46;5.65;;;1.55;;